• Join FlightAware (Why Join?)
  • Login
  • US Flag 
08:57PM EDT


 

Airport Tracker/Info


-or-


 

Live Flight TrackerFlight Track Log ✈ AAR8733 ✈ 31-Oct-2013 ✈ RKSS / GMP - RKJY / RSU

Flight Track Log - Related Links

Times and Time Zones

All times are in EDT time to prevent confusion due to time zone crossing. See the AAR8733 flight status page for this flight to view local times or setup timezone preferences in your user account.

Time Position Orientation Groundspeed Altitude Reporting Facility
EDT Latitude Longitude Course Direction KTS MPH feet Rate Location/Type
08:59PM 37.2381 126.8909 166° South  Level Estimated
09:00PM 37.1580 126.9158 166° South  Level Estimated
09:01PM 37.0780 126.9407 166° South  Level Estimated
09:02PM 36.9979 126.9655 166° South  Level Estimated
09:03PM 36.9178 126.9903 166° South  Level Estimated
09:04PM 36.8377 127.0150 166° South  Level Estimated
09:05PM 36.7576 127.0397 166° South  Level Estimated
09:06PM 36.6775 127.0643 166° South  Level Estimated
09:07PM 36.5974 127.0889 166° South  Level Estimated
09:08PM 36.5173 127.1134 166° South  Level Estimated
09:09PM 36.4372 127.1379 166° South  Level Estimated
09:10PM 36.3571 127.1623 166° South  Level Estimated
09:11PM 36.2770 127.1867 166° South  Level Estimated
09:12PM 36.1968 127.2110 166° South  Level Estimated
09:13PM 36.1167 127.2353 166° South  Level Estimated
09:14PM 36.0366 127.2595 166° South  Level Estimated
09:15PM 35.9564 127.2837 166° South  Level Estimated
09:16PM 35.8763 127.3078 166° South  Level Estimated
09:17PM 35.7961 127.3319 166° South  Level Estimated
09:18PM 35.7160 127.3559 166° South  Level Estimated
09:19PM 35.6358 127.3799 166° South  Level Estimated
09:20PM 35.5556 127.4038 166° South  Level Estimated
09:21PM 35.4755 127.4277 166° South  Level Estimated
09:22PM 35.3953 127.4515 166° South  Level Estimated
09:23PM 35.3151 127.4753 166° South  Level Estimated
09:24PM 35.2349 127.4990 166° South  Level Estimated
09:25PM 35.1547 127.5227 166° South  Level Estimated
09:26PM 35.0745 127.5464 166° South  Level Estimated
09:27PM 34.9943 127.5700 166° South  Level Estimated
09:28PM 34.9141 127.5935 166° South  Level Estimated
09:29PM 34.8398 127.6153 166° South  Level Estimated
09:30PM 34.8398 127.6153 180° South  Level Estimated
09:31PM 34.8398 127.6153 180° South  Level Estimated
09:32PM 34.8398 127.6153 180° South  Level Estimated
09:33PM 34.8398 127.6153 180° South  Level Estimated
09:34PM 34.8398 127.6153 180° South  Level Estimated
09:35PM 34.8398 127.6153 180° South  Level Estimated
09:36PM 34.8398 127.6153 180° South  Level Estimated
09:37PM 34.8398 127.6153 180° South  Level Estimated
09:38PM 34.8398 127.6153 180° South  Level Estimated
09:39PM 34.8398 127.6153 180° South  Level Estimated
09:40PM 34.8398 127.6153 180° South  Level Estimated
09:41PM 34.8398 127.6153 180° South  Level Estimated
09:42PM 34.8398 127.6153 180° South  Level Estimated
09:43PM 34.8398 127.6153 180° South  Level Estimated
09:44PM 34.8398 127.6153 180° South  Level Estimated
09:45PM 34.8398 127.6153 180° South  Level Estimated